Ames, Oklahoma
Current Conditions -  °F | °C
As of 7:58 AM on Saturday 20 Dec 2014 (Local Time) from KEND Reporting Station
Overcast Overcast  
Wind Chill: -2°   Ceiling: 2500
Heat Index:   Visibility: 10mi
Dew Point:   Wind: 8mph
Humidity: 91%   Direction: 150°SSE
Pressure: 30.18"   Gusts: NA
Location:  36.25°N, 98.19°W
Report Text: KEND 201358Z AUTO 15007KT 10SM OVC025 02/01 A3018 RMK AO2 SLP230 T00200007 $
Loading
Personal Weather Stations






























Interactive Weather Map New forecast layout! Learn more

10-Day Weather Forecast

Advertisements
Track Severe Weather on mobile